sensor_id;sensor_type;location;lat;lon;timestamp;pressure;altitude;pressure_sealevel;temperature;humidity
54042;BME280;41156;51.508;5.406;2023-05-02T00:02:32;101867.34;;;11.66;100.00
54042;BME280;41156;51.508;5.406;2023-05-02T00:05:33;101877.97;;;11.68;100.00
54042;BME280;41156;51.508;5.406;2023-05-02T00:08:33;101881.25;;;11.63;100.00
54042;BME280;41156;51.508;5.406;2023-05-02T00:11:34;101878.56;;;11.63;100.00
54042;BME280;41156;51.508;5.406;2023-05-02T00:14:34;101890.00;;;11.65;100.00
54042;BME280;41156;51.508;5.406;2023-05-02T00:17:35;101888.16;;;11.66;100.00
54042;BME280;41156;51.508;5.406;2023-05-02T00:20:35;101887.72;;;11.62;100.00
54042;BME280;41156;51.508;5.406;2023-05-02T00:23:35;101889.38;;;11.63;100.00
54042;BME280;41156;51.508;5.406;2023-05-02T00:26:36;101894.59;;;11.65;100.00
54042;BME280;41156;51.508;5.406;2023-05-02T00:29:36;101900.22;;;11.63;100.00
54042;BME280;41156;51.508;5.406;2023-05-02T00:32:37;101897.88;;;11.60;100.00
54042;BME280;41156;51.508;5.406;2023-05-02T00:35:37;101902.47;;;11.60;100.00
54042;BME280;41156;51.508;5.406;2023-05-02T00:38:38;101904.34;;;11.59;100.00
54042;BME280;41156;51.508;5.406;2023-05-02T00:41:38;101911.22;;;11.62;100.00
54042;BME280;41156;51.508;5.406;2023-05-02T00:44:38;101905.19;;;11.60;100.00
54042;BME280;41156;51.508;5.406;2023-05-02T00:47:39;101898.09;;;11.59;100.00
54042;BME280;41156;51.508;5.406;2023-05-02T00:50:41;101904.34;;;11.59;100.00
54042;BME280;41156;51.508;5.406;2023-05-02T00:53:41;101913.13;;;11.61;100.00
54042;BME280;41156;51.508;5.406;2023-05-02T00:56:41;101914.13;;;11.60;100.00
54042;BME280;41156;51.508;5.406;2023-05-02T00:59:42;101909.31;;;11.56;100.00
54042;BME280;41156;51.508;5.406;2023-05-02T01:02:50;101915.50;;;11.50;100.00
54042;BME280;41156;51.508;5.406;2023-05-02T01:09:25;101903.38;;;11.45;100.00
54042;BME280;41156;51.508;5.406;2023-05-02T01:12:39;101912.94;;;11.41;100.00
54042;BME280;41156;51.508;5.406;2023-05-02T01:15:41;101903.53;;;11.37;100.00
54042;BME280;41156;51.508;5.406;2023-05-02T01:18:42;101910.38;;;11.33;100.00
54042;BME280;41156;51.508;5.406;2023-05-02T01:21:43;101912.06;;;11.34;100.00
54042;BME280;41156;51.508;5.406;2023-05-02T01:25:07;101912.81;;;11.28;100.00
54042;BME280;41156;51.508;5.406;2023-05-02T01:28:24;101913.56;;;11.22;100.00
54042;BME280;41156;51.508;5.406;2023-05-02T01:31:29;101909.72;;;11.09;100.00
54042;BME280;41156;51.508;5.406;2023-05-02T01:34:32;101913.94;;;10.97;100.00
54042;BME280;41156;51.508;5.406;2023-05-02T01:37:37;101909.06;;;10.86;100.00
54042;BME280;41156;51.508;5.406;2023-05-02T01:40:39;101912.31;;;10.81;100.00
54042;BME280;41156;51.508;5.406;2023-05-02T01:43:41;101913.97;;;10.82;100.00
54042;BME280;41156;51.508;5.406;2023-05-02T01:46:42;101917.47;;;10.76;100.00
54042;BME280;41156;51.508;5.406;2023-05-02T01:49:43;101917.00;;;10.72;100.00
54042;BME280;41156;51.508;5.406;2023-05-02T01:52:44;101918.03;;;10.71;100.00
54042;BME280;41156;51.508;5.406;2023-05-02T01:55:46;101930.53;;;10.72;100.00
54042;BME280;41156;51.508;5.406;2023-05-02T01:58:48;101928.66;;;10.73;100.00
54042;BME280;41156;51.508;5.406;2023-05-02T02:01:50;101930.53;;;10.72;100.00
54042;BME280;41156;51.508;5.406;2023-05-02T02:04:53;101933.88;;;10.74;100.00
54042;BME280;41156;51.508;5.406;2023-05-02T02:07:54;101938.22;;;10.76;100.00
54042;BME280;41156;51.508;5.406;2023-05-02T02:10:58;101939.47;;;10.73;100.00
54042;BME280;41156;51.508;5.406;2023-05-02T02:14:05;101949.22;;;10.74;100.00
54042;BME280;41156;51.508;5.406;2023-05-02T02:17:25;101943.81;;;10.74;100.00
54042;BME280;41156;51.508;5.406;2023-05-02T02:20:27;101954.28;;;10.77;100.00
54042;BME280;41156;51.508;5.406;2023-05-02T02:23:29;101956.78;;;10.79;100.00
54042;BME280;41156;51.508;5.406;2023-05-02T02:26:30;101961.44;;;10.85;100.00
54042;BME280;41156;51.508;5.406;2023-05-02T02:29:31;101965.53;;;10.81;100.00
54042;BME280;41156;51.508;5.406;2023-05-02T02:32:31;101960.53;;;10.78;100.00
54042;BME280;41156;51.508;5.406;2023-05-02T02:35:36;101962.19;;;10.79;100.00
54042;BME280;41156;51.508;5.406;2023-05-02T02:38:47;101964.91;;;10.79;100.00
54042;BME280;41156;51.508;5.406;2023-05-02T02:42:01;101965.53;;;10.81;100.00
54042;BME280;41156;51.508;5.406;2023-05-02T02:48:25;101967.59;;;10.79;100.00
54042;BME280;41156;51.508;5.406;2023-05-02T02:51:38;101978.34;;;10.72;100.00
54042;BME280;41156;51.508;5.406;2023-05-02T02:54:49;101980.56;;;10.68;100.00
54042;BME280;41156;51.508;5.406;2023-05-02T02:57:56;101978.88;;;10.67;100.00
54042;BME280;41156;51.508;5.406;2023-05-02T03:01:02;101980.38;;;10.70;100.00
54042;BME280;41156;51.508;5.406;2023-05-02T03:04:04;101986.63;;;10.70;100.00
54042;BME280;41156;51.508;5.406;2023-05-02T03:07:06;101989.16;;;10.72;100.00
54042;BME280;41156;51.508;5.406;2023-05-02T03:10:06;101995.19;;;10.74;100.00
54042;BME280;41156;51.508;5.406;2023-05-02T03:13:07;101999.59;;;10.75;100.00
54042;BME280;41156;51.508;5.406;2023-05-02T03:16:36;102005.81;;;10.76;100.00
54042;BME280;41156;51.508;5.406;2023-05-02T03:19:36;102012.09;;;10.76;100.00
54042;BME280;41156;51.508;5.406;2023-05-02T03:22:37;102013.75;;;10.77;100.00
54042;BME280;41156;51.508;5.406;2023-05-02T03:25:37;102013.94;;;10.76;100.00
54042;BME280;41156;51.508;5.406;2023-05-02T03:28:37;102012.09;;;10.76;100.00
54042;BME280;41156;51.508;5.406;2023-05-02T03:31:38;102014.34;;;10.72;100.00
54042;BME280;41156;51.508;5.406;2023-05-02T03:34:38;102018.69;;;10.73;100.00
54042;BME280;41156;51.508;5.406;2023-05-02T03:37:38;102020.38;;;10.74;100.00
54042;BME280;41156;51.508;5.406;2023-05-02T03:40:39;102011.63;;;10.72;100.00
54042;BME280;41156;51.508;5.406;2023-05-02T03:43:39;102016.00;;;10.73;100.00
54042;BME280;41156;51.508;5.406;2023-05-02T03:46:39;102013.09;;;10.75;100.00
54042;BME280;41156;51.508;5.406;2023-05-02T03:49:40;102016.63;;;10.76;100.00
54042;BME280;41156;51.508;5.406;2023-05-02T03:52:40;102015.63;;;10.77;100.00
54042;BME280;41156;51.508;5.406;2023-05-02T03:55:41;102026.81;;;10.73;100.00
54042;BME280;41156;51.508;5.406;2023-05-02T03:58:42;102032.22;;;10.73;100.00
54042;BME280;41156;51.508;5.406;2023-05-02T04:01:42;102041.06;;;10.67;100.00
54042;BME280;41156;51.508;5.406;2023-05-02T04:04:42;102041.47;;;10.64;100.00
54042;BME280;41156;51.508;5.406;2023-05-02T04:07:42;102049.56;;;10.64;100.00
54042;BME280;41156;51.508;5.406;2023-05-02T04:10:43;102051.22;;;10.65;100.00
54042;BME280;41156;51.508;5.406;2023-05-02T04:13:43;102057.50;;;10.66;100.00
54042;BME280;41156;51.508;5.406;2023-05-02T04:16:47;102053.94;;;10.65;100.00
54042;BME280;41156;51.508;5.406;2023-05-02T04:19:48;102067.44;;;10.65;100.00
54042;BME280;41156;51.508;5.406;2023-05-02T04:22:48;102071.19;;;10.64;100.00
54042;BME280;41156;51.508;5.406;2023-05-02T04:25:53;102067.81;;;10.62;100.00
54042;BME280;41156;51.508;5.406;2023-05-02T04:28:53;102079.03;;;10.59;100.00
54042;BME280;41156;51.508;5.406;2023-05-02T04:31:54;102085.91;;;10.62;100.00
54042;BME280;41156;51.508;5.406;2023-05-02T04:34:54;102096.25;;;10.58;100.00
54042;BME280;41156;51.508;5.406;2023-05-02T04:37:54;102095.50;;;10.49;100.00
54042;BME280;41156;51.508;5.406;2023-05-02T04:40:55;102106.03;;;10.44;100.00
54042;BME280;41156;51.508;5.406;2023-05-02T04:43:56;102104.88;;;10.39;100.00
54042;BME280;41156;51.508;5.406;2023-05-02T04:46:56;102108.78;;;10.36;100.00
54042;BME280;41156;51.508;5.406;2023-05-02T04:49:56;102119.09;;;10.32;100.00
54042;BME280;41156;51.508;5.406;2023-05-02T04:52:57;102127.72;;;10.36;100.00
54042;BME280;41156;51.508;5.406;2023-05-02T04:55:57;102127.88;;;10.34;100.00
54042;BME280;41156;51.508;5.406;2023-05-02T04:58:57;102131.59;;;10.33;100.00
54042;BME280;41156;51.508;5.406;2023-05-02T05:01:58;102141.06;;;10.29;100.00
54042;BME280;41156;51.508;5.406;2023-05-02T05:05:00;102144.13;;;10.26;100.00
54042;BME280;41156;51.508;5.406;2023-05-02T05:08:00;102138.72;;;10.26;100.00
54042;BME280;41156;51.508;5.406;2023-05-02T05:11:01;102156.59;;;10.27;100.00
54042;BME280;41156;51.508;5.406;2023-05-02T05:14:01;102160.34;;;10.26;100.00
54042;BME280;41156;51.508;5.406;2023-05-02T05:17:03;102157.63;;;10.26;100.00
54042;BME280;41156;51.508;5.406;2023-05-02T05:20:04;102167.59;;;10.26;100.00
54042;BME280;41156;51.508;5.406;2023-05-02T05:23:04;102171.81;;;10.28;100.00
54042;BME280;41156;51.508;5.406;2023-05-02T05:26:13;102175.50;;;10.27;100.00
54042;BME280;41156;51.508;5.406;2023-05-02T05:29:17;102177.75;;;10.24;100.00
54042;BME280;41156;51.508;5.406;2023-05-02T05:32:18;102175.00;;;10.32;100.00
54042;BME280;41156;51.508;5.406;2023-05-02T05:35:18;102177.38;;;10.27;100.00
54042;BME280;41156;51.508;5.406;2023-05-02T05:38:18;102170.94;;;10.36;98.86
54042;BME280;41156;51.508;5.406;2023-05-02T05:41:18;102189.13;;;10.42;99.71
54042;BME280;41156;51.508;5.406;2023-05-02T05:44:19;102193.50;;;10.43;97.54
54042;BME280;41156;51.508;5.406;2023-05-02T05:47:21;102196.69;;;10.47;97.73
54042;BME280;41156;51.508;5.406;2023-05-02T05:50:21;102190.50;;;10.61;98.24
54042;BME280;41156;51.508;5.406;2023-05-02T05:53:21;102193.63;;;10.88;96.86
54042;BME280;41156;51.508;5.406;2023-05-02T05:56:22;102196.19;;;11.04;95.70
54042;BME280;41156;51.508;5.406;2023-05-02T05:59:22;102202.81;;;11.17;95.77
54042;BME280;41156;51.508;5.406;2023-05-02T06:02:22;102204.00;;;11.29;95.45
54042;BME280;41156;51.508;5.406;2023-05-02T06:05:23;102207.56;;;11.44;94.20
54042;BME280;41156;51.508;5.406;2023-05-02T06:08:23;102221.94;;;11.60;89.28
54042;BME280;41156;51.508;5.406;2023-05-02T06:11:23;102224.72;;;11.96;92.68
54042;BME280;41156;51.508;5.406;2023-05-02T06:14:25;102225.47;;;12.27;84.53
54042;BME280;41156;51.508;5.406;2023-05-02T06:17:25;102228.91;;;12.85;85.36
54042;BME280;41156;51.508;5.406;2023-05-02T06:20:26;102232.66;;;13.34;85.05
54042;BME280;41156;51.508;5.406;2023-05-02T06:23:26;102236.03;;;13.78;83.01
54042;BME280;41156;51.508;5.406;2023-05-02T06:26:26;102239.31;;;14.28;82.46
54042;BME280;41156;51.508;5.406;2023-05-02T06:29:26;102246.06;;;14.39;76.30
54042;BME280;41156;51.508;5.406;2023-05-02T06:32:30;102254.81;;;14.34;77.62
54042;BME280;41156;51.508;5.406;2023-05-02T06:35:31;102252.31;;;14.33;76.63
54042;BME280;41156;51.508;5.406;2023-05-02T06:38:31;102272.97;;;14.27;75.89
54042;BME280;41156;51.508;5.406;2023-05-02T06:41:31;102270.63;;;14.04;77.47
54042;BME280;41156;51.508;5.406;2023-05-02T06:44:32;102278.19;;;13.74;78.99
54042;BME280;41156;51.508;5.406;2023-05-02T06:47:32;102283.94;;;13.92;77.66
54042;BME280;41156;51.508;5.406;2023-05-02T06:50:33;102286.47;;;14.00;74.06
54042;BME280;41156;51.508;5.406;2023-05-02T06:53:33;102301.09;;;13.93;74.31
54042;BME280;41156;51.508;5.406;2023-05-02T06:56:34;102296.50;;;13.58;75.61
54042;BME280;41156;51.508;5.406;2023-05-02T06:59:34;102305.03;;;13.55;75.83
54042;BME280;41156;51.508;5.406;2023-05-02T07:02:35;102300.06;;;13.59;76.84
54042;BME280;41156;51.508;5.406;2023-05-02T07:05:35;102304.50;;;14.08;74.73
54042;BME280;41156;51.508;5.406;2023-05-02T07:08:35;102299.09;;;14.15;74.99
54042;BME280;41156;51.508;5.406;2023-05-02T07:11:36;102313.53;;;14.22;75.45
54042;BME280;41156;51.508;5.406;2023-05-02T07:14:36;102321.78;;;14.49;74.82
54042;BME280;41156;51.508;5.406;2023-05-02T07:17:36;102330.19;;;14.54;74.53
54042;BME280;41156;51.508;5.406;2023-05-02T07:20:37;102325.16;;;14.51;74.63
54042;BME280;41156;51.508;5.406;2023-05-02T07:23:38;102333.22;;;14.86;71.83
54042;BME280;41156;51.508;5.406;2023-05-02T07:26:38;102334.03;;;14.79;72.46
54042;BME280;41156;51.508;5.406;2023-05-02T07:29:38;102342.16;;;14.59;72.36
54042;BME280;41156;51.508;5.406;2023-05-02T07:32:39;102346.53;;;14.05;72.97
54042;BME280;41156;51.508;5.406;2023-05-02T07:35:39;102356.59;;;13.77;73.84
54042;BME280;41156;51.508;5.406;2023-05-02T07:38:40;102343.69;;;13.57;73.50
54042;BME280;41156;51.508;5.406;2023-05-02T07:41:40;102351.31;;;13.40;73.93
54042;BME280;41156;51.508;5.406;2023-05-02T07:44:40;102352.72;;;13.58;73.67
54042;BME280;41156;51.508;5.406;2023-05-02T07:47:41;102357.81;;;13.67;73.37
54042;BME280;41156;51.508;5.406;2023-05-02T07:50:41;102351.47;;;13.60;72.87
54042;BME280;41156;51.508;5.406;2023-05-02T07:53:41;102355.91;;;13.40;71.32
54042;BME280;41156;51.508;5.406;2023-05-02T07:56:42;102360.50;;;13.18;73.50
54042;BME280;41156;51.508;5.406;2023-05-02T07:59:42;102364.13;;;13.03;73.88
54042;BME280;41156;51.508;5.406;2023-05-02T08:02:43;102363.91;;;12.83;74.21
54042;BME280;41156;51.508;5.406;2023-05-02T08:05:44;102375.66;;;12.69;75.33
54042;BME280;41156;51.508;5.406;2023-05-02T08:08:44;102376.00;;;12.44;75.25
54042;BME280;41156;51.508;5.406;2023-05-02T08:11:45;102385.94;;;12.22;75.44
54042;BME280;41156;51.508;5.406;2023-05-02T08:14:45;102378.28;;;12.11;75.48
54042;BME280;41156;51.508;5.406;2023-05-02T08:17:46;102385.75;;;12.09;75.74
54042;BME280;41156;51.508;5.406;2023-05-02T08:20:46;102385.28;;;12.05;76.04
54042;BME280;41156;51.508;5.406;2023-05-02T08:23:47;102386.97;;;12.06;75.24
54042;BME280;41156;51.508;5.406;2023-05-02T08:26:47;102394.66;;;12.02;75.46
54042;BME280;41156;51.508;5.406;2023-05-02T08:29:47;102400.63;;;11.98;73.40
54042;BME280;41156;51.508;5.406;2023-05-02T08:32:48;102404.34;;;11.97;74.52
54042;BME280;41156;51.508;5.406;2023-05-02T08:35:48;102409.66;;;12.05;74.80
54042;BME280;41156;51.508;5.406;2023-05-02T08:38:48;102413.69;;;12.24;74.86
54042;BME280;41156;51.508;5.406;2023-05-02T08:41:49;102420.41;;;12.43;74.26
54042;BME280;41156;51.508;5.406;2023-05-02T08:44:49;102419.75;;;12.56;73.57
54042;BME280;41156;51.508;5.406;2023-05-02T08:47:50;102415.94;;;12.72;70.86
54042;BME280;41156;51.508;5.406;2023-05-02T08:50:52;102416.78;;;12.87;72.18
54042;BME280;41156;51.508;5.406;2023-05-02T08:53:53;102430.06;;;13.04;72.18
54042;BME280;41156;51.508;5.406;2023-05-02T08:56:54;102431.03;;;13.32;71.91
54042;BME280;41156;51.508;5.406;2023-05-02T08:59:54;102437.03;;;13.49;71.19
54042;BME280;41156;51.508;5.406;2023-05-02T09:03:25;102437.53;;;13.60;63.82
54042;BME280;41156;51.508;5.406;2023-05-02T09:06:28;102437.22;;;13.69;67.87
54042;BME280;41156;51.508;5.406;2023-05-02T09:09:28;102443.38;;;13.85;67.17
54042;BME280;41156;51.508;5.406;2023-05-02T09:12:30;102446.59;;;13.95;68.44
54042;BME280;41156;51.508;5.406;2023-05-02T09:15:31;102439.63;;;14.14;68.09
54042;BME280;41156;51.508;5.406;2023-05-02T09:18:33;102449.72;;;14.62;65.79
54042;BME280;41156;51.508;5.406;2023-05-02T09:21:36;102454.50;;;15.22;66.69
54042;BME280;41156;51.508;5.406;2023-05-02T09:24:36;102454.53;;;15.42;64.30
54042;BME280;41156;51.508;5.406;2023-05-02T09:27:51;102457.66;;;15.25;62.76
54042;BME280;41156;51.508;5.406;2023-05-02T09:31:05;102457.69;;;15.45;59.61
54042;BME280;41156;51.508;5.406;2023-05-02T09:34:10;102462.91;;;15.40;61.22
54042;BME280;41156;51.508;5.406;2023-05-02T09:37:34;102473.78;;;15.20;57.35
54042;BME280;41156;51.508;5.406;2023-05-02T09:40:34;102476.84;;;14.97;62.11
54042;BME280;41156;51.508;5.406;2023-05-02T09:43:35;102472.22;;;14.84;61.61
54042;BME280;41156;51.508;5.406;2023-05-02T09:46:44;102475.38;;;14.53;60.17
54042;BME280;41156;51.508;5.406;2023-05-02T09:49:44;102474.72;;;14.44;62.65
54042;BME280;41156;51.508;5.406;2023-05-02T09:53:06;102486.06;;;14.89;57.99
54042;BME280;41156;51.508;5.406;2023-05-02T09:56:06;102487.03;;;15.50;62.14
54042;BME280;41156;51.508;5.406;2023-05-02T09:59:14;102486.63;;;16.06;56.48
54042;BME280;41156;51.508;5.406;2023-05-02T10:02:14;102473.13;;;16.45;56.36
54042;BME280;41156;51.508;5.406;2023-05-02T10:05:15;102480.03;;;16.54;56.87
54042;BME280;41156;51.508;5.406;2023-05-02T10:08:18;102479.00;;;16.42;57.49
54042;BME280;41156;51.508;5.406;2023-05-02T10:11:18;102486.38;;;16.35;57.58
54042;BME280;41156;51.508;5.406;2023-05-02T10:14:20;102479.84;;;16.49;56.36
54042;BME280;41156;51.508;5.406;2023-05-02T10:17:30;102487.84;;;16.44;54.09
54042;BME280;41156;51.508;5.406;2023-05-02T10:20:34;102491.03;;;16.27;54.10
54042;BME280;41156;51.508;5.406;2023-05-02T10:23:39;102485.25;;;16.69;55.43
54042;BME280;41156;51.508;5.406;2023-05-02T10:26:40;102485.22;;;17.21;51.52
54042;BME280;41156;51.508;5.406;2023-05-02T10:29:41;102481.75;;;17.07;54.97
54042;BME280;41156;51.508;5.406;2023-05-02T10:32:45;102498.16;;;17.00;54.04
54042;BME280;41156;51.508;5.406;2023-05-02T10:35:46;102502.00;;;16.73;54.96
54042;BME280;41156;51.508;5.406;2023-05-02T10:38:47;102502.47;;;16.56;55.68
54042;BME280;41156;51.508;5.406;2023-05-02T10:41:50;102507.59;;;16.26;52.50
54042;BME280;41156;51.508;5.406;2023-05-02T10:44:53;102501.09;;;16.27;55.54
54042;BME280;41156;51.508;5.406;2023-05-02T10:51:26;102490.16;;;16.40;54.17
54042;BME280;41156;51.508;5.406;2023-05-02T10:54:27;102501.03;;;16.54;54.55
54042;BME280;41156;51.508;5.406;2023-05-02T10:57:27;102501.63;;;16.62;53.06
54042;BME280;41156;51.508;5.406;2023-05-02T11:00:31;102505.44;;;16.55;53.35
54042;BME280;41156;51.508;5.406;2023-05-02T11:03:57;102506.97;;;17.02;51.64
54042;BME280;41156;51.508;5.406;2023-05-02T11:13:49;102507.06;;;17.21;49.61
54042;BME280;41156;51.508;5.406;2023-05-02T11:22:58;102499.97;;;16.55;51.50
54042;BME280;41156;51.508;5.406;2023-05-02T11:25:59;102511.66;;;16.89;50.74
54042;BME280;41156;51.508;5.406;2023-05-02T11:29:02;102513.25;;;17.03;49.04
54042;BME280;41156;51.508;5.406;2023-05-02T11:32:03;102518.97;;;16.81;49.92
54042;BME280;41156;51.508;5.406;2023-05-02T11:35:04;102520.56;;;16.57;50.49
54042;BME280;41156;51.508;5.406;2023-05-02T11:38:10;102526.47;;;16.34;48.24
54042;BME280;41156;51.508;5.406;2023-05-02T11:41:10;102517.44;;;16.40;51.39
54042;BME280;41156;51.508;5.406;2023-05-02T11:44:11;102518.66;;;16.51;49.54
54042;BME280;41156;51.508;5.406;2023-05-02T11:47:11;102505.75;;;16.92;50.94
54042;BME280;41156;51.508;5.406;2023-05-02T11:50:12;102511.97;;;17.12;50.68
54042;BME280;41156;51.508;5.406;2023-05-02T11:53:14;102524.69;;;17.64;48.97
54042;BME280;41156;51.508;5.406;2023-05-02T11:56:15;102519.81;;;17.98;48.05
54042;BME280;41156;51.508;5.406;2023-05-02T11:59:22;102521.59;;;18.10;48.37
54042;BME280;41156;51.508;5.406;2023-05-02T12:05:38;102525.41;;;18.46;46.74
54042;BME280;41156;51.508;5.406;2023-05-02T12:08:39;102526.28;;;18.47;45.37
54042;BME280;41156;51.508;5.406;2023-05-02T12:11:40;102514.16;;;18.36;45.32
54042;BME280;41156;51.508;5.406;2023-05-02T12:14:40;102528.13;;;17.78;46.62
54042;BME280;41156;51.508;5.406;2023-05-02T12:17:45;102538.81;;;17.54;43.76
54042;BME280;41156;51.508;5.406;2023-05-02T12:20:46;102533.63;;;17.46;47.03
54042;BME280;41156;51.508;5.406;2023-05-02T12:23:46;102544.38;;;17.41;47.00
54042;BME280;41156;51.508;5.406;2023-05-02T12:26:47;102542.59;;;17.21;46.11
54042;BME280;41156;51.508;5.406;2023-05-02T12:29:47;102536.06;;;17.22;47.58
54042;BME280;41156;51.508;5.406;2023-05-02T12:32:55;102557.53;;;17.57;45.06
54042;BME280;41156;51.508;5.406;2023-05-02T12:36:05;102553.00;;;17.69;46.28
54042;BME280;41156;51.508;5.406;2023-05-02T12:39:05;102560.16;;;18.27;45.38
54042;BME280;41156;51.508;5.406;2023-05-02T12:42:10;102554.13;;;18.62;43.35
54042;BME280;41156;51.508;5.406;2023-05-02T12:45:17;102566.47;;;18.46;41.40
54042;BME280;41156;51.508;5.406;2023-05-02T12:51:22;102567.13;;;17.98;42.91
54042;BME280;41156;51.508;5.406;2023-05-02T12:54:23;102568.53;;;18.07;45.42
54042;BME280;41156;51.508;5.406;2023-05-02T12:57:25;102571.72;;;17.72;44.16
54042;BME280;41156;51.508;5.406;2023-05-02T13:00:25;102571.16;;;17.18;46.05
54042;BME280;41156;51.508;5.406;2023-05-02T13:03:25;102571.84;;;17.14;45.57
54042;BME280;41156;51.508;5.406;2023-05-02T13:06:28;102561.88;;;17.26;44.84
54042;BME280;41156;51.508;5.406;2023-05-02T13:09:28;102564.00;;;17.63;44.96
54042;BME280;41156;51.508;5.406;2023-05-02T13:12:29;102574.41;;;18.11;44.65
54042;BME280;41156;51.508;5.406;2023-05-02T13:15:29;102573.88;;;18.64;43.16
54042;BME280;41156;51.508;5.406;2023-05-02T13:18:29;102573.53;;;18.98;43.04
54042;BME280;41156;51.508;5.406;2023-05-02T13:21:30;102569.66;;;18.68;42.76
54042;BME280;41156;51.508;5.406;2023-05-02T13:24:30;102566.78;;;18.38;42.88
54042;BME280;41156;51.508;5.406;2023-05-02T13:27:31;102571.00;;;18.16;43.01
54042;BME280;41156;51.508;5.406;2023-05-02T13:30:33;102567.28;;;18.28;43.28
54042;BME280;41156;51.508;5.406;2023-05-02T13:33:33;102564.59;;;17.97;40.59
54042;BME280;41156;51.508;5.406;2023-05-02T13:36:33;102571.00;;;17.84;43.38
54042;BME280;41156;51.508;5.406;2023-05-02T13:39:35;102564.78;;;17.70;41.41
54042;BME280;41156;51.508;5.406;2023-05-02T13:42:36;102579.97;;;17.66;43.48
54042;BME280;41156;51.508;5.406;2023-05-02T13:45:36;102570.25;;;17.70;43.63
54042;BME280;41156;51.508;5.406;2023-05-02T13:48:36;102580.34;;;17.69;42.95
54042;BME280;41156;51.508;5.406;2023-05-02T13:51:36;102577.44;;;17.64;43.87
54042;BME280;41156;51.508;5.406;2023-05-02T13:54:37;102573.72;;;17.52;44.49
54042;BME280;41156;51.508;5.406;2023-05-02T13:57:37;102579.16;;;17.97;44.00
54042;BME280;41156;51.508;5.406;2023-05-02T14:00:37;102579.25;;;18.34;43.59
54042;BME280;41156;51.508;5.406;2023-05-02T14:03:38;102575.13;;;18.43;43.22
54042;BME280;41156;51.508;5.406;2023-05-02T14:06:38;102583.88;;;18.34;42.40
54042;BME280;41156;51.508;5.406;2023-05-02T14:09:38;102567.97;;;18.67;42.71
54042;BME280;41156;51.508;5.406;2023-05-02T14:12:38;102571.63;;;18.98;41.98
54042;BME280;41156;51.508;5.406;2023-05-02T14:15:39;102556.47;;;19.14;41.10
54042;BME280;41156;51.508;5.406;2023-05-02T14:18:39;102564.06;;;19.31;41.61
54042;BME280;41156;51.508;5.406;2023-05-02T14:21:39;102559.88;;;19.58;41.01
54042;BME280;41156;51.508;5.406;2023-05-02T14:24:40;102560.19;;;19.81;40.70
54042;BME280;41156;51.508;5.406;2023-05-02T14:27:40;102557.56;;;19.86;40.35
54042;BME280;41156;51.508;5.406;2023-05-02T14:30:41;102557.28;;;19.64;40.56
54042;BME280;41156;51.508;5.406;2023-05-02T14:33:41;102554.13;;;19.60;38.93
54042;BME280;41156;51.508;5.406;2023-05-02T14:36:42;102561.63;;;19.53;39.66
54042;BME280;41156;51.508;5.406;2023-05-02T14:39:42;102551.56;;;19.65;39.56
54042;BME280;41156;51.508;5.406;2023-05-02T14:42:44;102549.13;;;19.57;39.78
54042;BME280;41156;51.508;5.406;2023-05-02T14:45:45;102554.88;;;19.67;36.10
54042;BME280;41156;51.508;5.406;2023-05-02T14:48:45;102550.28;;;19.49;38.35
54042;BME280;41156;51.508;5.406;2023-05-02T14:51:46;102558.75;;;19.48;39.56
54042;BME280;41156;51.508;5.406;2023-05-02T14:54:47;102553.09;;;19.73;39.18
54042;BME280;41156;51.508;5.406;2023-05-02T14:57:48;102563.00;;;19.74;36.35
54042;BME280;41156;51.508;5.406;2023-05-02T15:00:48;102560.19;;;19.81;38.20
54042;BME280;41156;51.508;5.406;2023-05-02T15:03:48;102558.31;;;20.05;38.06
54042;BME280;41156;51.508;5.406;2023-05-02T15:06:50;102551.63;;;20.01;35.42
54042;BME280;41156;51.508;5.406;2023-05-02T15:09:53;102561.50;;;19.78;38.08
54042;BME280;41156;51.508;5.406;2023-05-02T15:12:53;102545.91;;;19.60;38.26
54042;BME280;41156;51.508;5.406;2023-05-02T15:15:53;102559.06;;;19.70;38.00
54042;BME280;41156;51.508;5.406;2023-05-02T15:18:54;102569.13;;;19.76;36.65
54042;BME280;41156;51.508;5.406;2023-05-02T15:21:55;102565.09;;;19.90;37.51
54042;BME280;41156;51.508;5.406;2023-05-02T15:24:56;102561.91;;;19.93;37.53
54042;BME280;41156;51.508;5.406;2023-05-02T15:27:56;102556.47;;;19.75;36.15
54042;BME280;41156;51.508;5.406;2023-05-02T15:30:57;102561.53;;;19.59;38.30
54042;BME280;41156;51.508;5.406;2023-05-02T15:33:57;102558.16;;;19.46;37.92
54042;BME280;41156;51.508;5.406;2023-05-02T15:36:58;102560.41;;;19.18;37.27
54042;BME280;41156;51.508;5.406;2023-05-02T15:40:00;102568.81;;;19.05;38.11
54042;BME280;41156;51.508;5.406;2023-05-02T15:43:02;102566.53;;;19.02;38.24
54042;BME280;41156;51.508;5.406;2023-05-02T15:46:02;102564.44;;;18.85;38.46
54042;BME280;41156;51.508;5.406;2023-05-02T15:49:03;102567.09;;;18.92;38.67
54042;BME280;41156;51.508;5.406;2023-05-02T15:52:03;102566.06;;;18.86;38.31
54042;BME280;41156;51.508;5.406;2023-05-02T15:55:04;102573.22;;;18.69;38.92
54042;BME280;41156;51.508;5.406;2023-05-02T15:58:04;102571.88;;;18.97;38.48
54042;BME280;41156;51.508;5.406;2023-05-02T16:01:05;102575.44;;;19.16;38.73
54042;BME280;41156;51.508;5.406;2023-05-02T16:04:06;102577.34;;;19.15;38.77
54042;BME280;41156;51.508;5.406;2023-05-02T16:07:09;102574.28;;;19.05;37.42
54042;BME280;41156;51.508;5.406;2023-05-02T16:10:09;102578.13;;;18.85;36.99
54042;BME280;41156;51.508;5.406;2023-05-02T16:13:10;102592.97;;;18.53;38.98
54042;BME280;41156;51.508;5.406;2023-05-02T16:16:10;102594.22;;;18.50;38.50